createdAt,value
2023-05-17T00:00:07.823Z,4.77
2023-05-17T00:02:36.570Z,4.33
2023-05-17T00:05:05.725Z,4.23
2023-05-17T00:07:34.098Z,5.30
2023-05-17T00:10:02.686Z,5.00
2023-05-17T00:12:31.271Z,4.67
2023-05-17T00:14:59.657Z,4.63
2023-05-17T00:17:28.042Z,4.57
2023-05-17T00:19:56.692Z,3.73
2023-05-17T00:22:25.037Z,4.37
2023-05-17T00:24:53.340Z,4.40
2023-05-17T00:27:21.723Z,3.90
2023-05-17T00:29:50.095Z,3.80
2023-05-17T00:32:18.440Z,4.17
2023-05-17T00:34:46.852Z,4.30
2023-05-17T00:37:15.242Z,3.77
2023-05-17T00:39:43.617Z,4.57
2023-05-17T00:42:12.838Z,3.50
2023-05-17T00:44:41.605Z,3.47
2023-05-17T00:47:10.071Z,7.17
2023-05-17T00:49:38.577Z,3.70
2023-05-17T00:52:07.554Z,3.57
2023-05-17T00:54:36.275Z,3.90
2023-05-17T00:57:06.053Z,3.50
2023-05-17T00:59:35.440Z,3.50
2023-05-17T01:02:04.874Z,3.07
2023-05-17T01:04:33.841Z,3.17
2023-05-17T01:07:02.207Z,2.50
2023-05-17T01:09:31.362Z,2.50
2023-05-17T01:12:02.804Z,2.70
2023-05-17T01:14:40.370Z,2.63
2023-05-17T01:17:17.402Z,2.40
2023-05-17T01:19:56.897Z,2.30
2023-05-17T01:23:18.906Z,2.43
2023-05-17T01:26:09.040Z,2.73
2023-05-17T01:28:40.194Z,2.67
2023-05-17T01:31:09.747Z,2.97
2023-05-17T01:33:39.314Z,2.40
2023-05-17T01:36:08.359Z,2.30
2023-05-17T01:38:36.762Z,2.77
2023-05-17T01:41:44.715Z,2.73
2023-05-17T01:44:39.489Z,3.07
2023-05-17T01:47:30.395Z,2.53
2023-05-17T01:50:00.586Z,2.30
2023-05-17T01:52:37.037Z,2.23
2023-05-17T01:55:32.423Z,2.80
2023-05-17T01:58:02.826Z,2.43
2023-05-17T02:00:31.471Z,2.43
2023-05-17T02:03:00.019Z,2.90
2023-05-17T02:05:28.485Z,2.80
2023-05-17T02:07:57.336Z,2.90
2023-05-17T02:10:26.309Z,3.43
2023-05-17T02:12:54.632Z,2.90
2023-05-17T02:15:23.003Z,2.77
2023-05-17T02:17:51.433Z,2.50
2023-05-17T02:20:19.844Z,3.00
2023-05-17T02:22:48.212Z,2.10
2023-05-17T02:25:16.661Z,2.50
2023-05-17T02:27:45.098Z,2.70
2023-05-17T02:30:16.441Z,2.30
2023-05-17T02:32:46.473Z,2.40
2023-05-17T02:35:15.327Z,2.30
2023-05-17T02:37:43.789Z,2.60
2023-05-17T02:40:12.860Z,2.33
2023-05-17T02:42:41.218Z,2.67
2023-05-17T02:45:10.119Z,2.73
2023-05-17T02:47:38.619Z,2.50
2023-05-17T02:50:07.684Z,3.07
2023-05-17T02:52:36.292Z,3.00
2023-05-17T02:55:05.416Z,2.63
2023-05-17T02:57:33.762Z,2.80
2023-05-17T03:00:02.078Z,2.60
2023-05-17T03:02:30.508Z,2.53
2023-05-17T03:04:59.201Z,2.90
2023-05-17T03:07:30.684Z,2.87
2023-05-17T03:09:59.097Z,2.33
2023-05-17T03:12:29.355Z,2.67
2023-05-17T03:15:00.880Z,2.93
2023-05-17T03:17:29.661Z,3.13
2023-05-17T03:19:58.336Z,2.73
2023-05-17T03:22:27.075Z,3.60
2023-05-17T03:24:55.625Z,3.30
2023-05-17T03:27:24.140Z,3.70
2023-05-17T03:29:52.576Z,2.70
2023-05-17T03:32:20.963Z,3.13
2023-05-17T03:34:49.429Z,3.33
2023-05-17T03:37:17.808Z,2.97
2023-05-17T03:39:46.199Z,3.33
2023-05-17T03:42:14.664Z,3.50
2023-05-17T03:44:43.159Z,3.30
2023-05-17T03:47:11.706Z,4.00
2023-05-17T03:49:40.116Z,3.47
2023-05-17T03:52:08.472Z,3.20
2023-05-17T03:54:36.810Z,3.40
2023-05-17T03:57:05.285Z,4.03
2023-05-17T03:59:33.653Z,4.00
2023-05-17T04:02:02.085Z,3.47
2023-05-17T04:04:30.495Z,5.10
2023-05-17T04:06:58.831Z,4.10
2023-05-17T04:09:27.178Z,3.23
2023-05-17T04:11:55.553Z,3.17
2023-05-17T04:14:23.912Z,3.00
2023-05-17T04:16:52.300Z,3.03
2023-05-17T04:19:20.882Z,3.70
2023-05-17T04:21:49.374Z,3.03
2023-05-17T04:24:18.060Z,3.87
2023-05-17T04:26:46.420Z,3.00
2023-05-17T04:29:14.824Z,2.60
2023-05-17T04:31:43.558Z,2.67
2023-05-17T04:34:12.363Z,2.70
2023-05-17T04:36:40.781Z,3.37
2023-05-17T04:39:09.236Z,2.50
2023-05-17T04:41:38.566Z,2.87
2023-05-17T04:44:10.924Z,2.90
2023-05-17T04:46:39.281Z,2.80
2023-05-17T04:49:08.128Z,3.10
2023-05-17T04:51:36.924Z,2.70
2023-05-17T04:54:07.730Z,3.43
2023-05-17T04:56:40.281Z,3.07
2023-05-17T04:59:08.670Z,2.87
2023-05-17T05:01:37.068Z,3.20
2023-05-17T05:04:07.906Z,3.10
2023-05-17T05:06:36.725Z,3.17
2023-05-17T05:09:05.519Z,3.00
2023-05-17T05:11:33.929Z,3.00
2023-05-17T05:14:02.502Z,2.70
2023-05-17T05:16:30.861Z,2.97
2023-05-17T05:18:59.448Z,3.90
2023-05-17T05:21:28.086Z,3.40
2023-05-17T05:23:56.504Z,3.13
2023-05-17T05:26:24.853Z,3.13
2023-05-17T05:28:53.207Z,2.87
2023-05-17T05:31:21.532Z,3.10
2023-05-17T05:33:50.843Z,2.97
2023-05-17T05:36:19.175Z,2.80
2023-05-17T05:38:47.603Z,3.10
2023-05-17T05:41:15.938Z,3.80
2023-05-17T05:43:44.344Z,3.00
2023-05-17T05:46:12.739Z,3.20
2023-05-17T05:48:42.754Z,3.30
2023-05-17T05:51:11.701Z,3.30
2023-05-17T05:53:40.567Z,2.73
2023-05-17T05:56:10.368Z,3.60
2023-05-17T05:58:39.044Z,3.03
2023-05-17T06:01:07.800Z,3.40
2023-05-17T06:03:36.317Z,3.17
2023-05-17T06:06:04.913Z,2.97
2023-05-17T06:08:33.350Z,3.00
2023-05-17T06:11:01.678Z,2.73
2023-05-17T06:13:30.124Z,2.90
2023-05-17T06:16:00.369Z,3.33
2023-05-17T06:18:28.914Z,3.10
2023-05-17T06:20:57.437Z,3.37
2023-05-17T06:23:26.414Z,3.63
2023-05-17T06:25:54.780Z,3.70
2023-05-17T06:28:23.162Z,3.47
2023-05-17T06:30:51.565Z,3.77
2023-05-17T06:33:20.001Z,3.40
2023-05-17T06:38:23.111Z,3.67
2023-05-17T06:40:55.731Z,3.60
2023-05-17T06:43:24.104Z,4.00
2023-05-17T06:45:53.814Z,3.57
2023-05-17T06:48:22.272Z,3.17
2023-05-17T06:50:50.704Z,3.20
2023-05-17T06:53:19.148Z,3.40
2023-05-17T06:55:47.614Z,3.43
2023-05-17T06:58:15.986Z,4.07
2023-05-17T07:00:44.305Z,3.83
2023-05-17T07:03:12.758Z,3.67
2023-05-17T07:05:41.397Z,3.40
2023-05-17T07:08:09.780Z,3.10
2023-05-17T07:10:38.149Z,3.40
2023-05-17T07:13:06.656Z,3.47
2023-05-17T07:15:34.966Z,3.13
2023-05-17T07:18:03.440Z,2.97
2023-05-17T07:20:31.954Z,3.47
2023-05-17T07:23:00.263Z,3.07
2023-05-17T07:25:28.908Z,3.03
2023-05-17T07:27:57.413Z,3.90
2023-05-17T07:30:25.946Z,3.60
2023-05-17T07:32:54.315Z,3.00
2023-05-17T07:35:22.764Z,3.07
2023-05-17T07:37:51.363Z,3.40
2023-05-17T07:40:19.870Z,3.17
2023-05-17T07:42:48.225Z,3.53
2023-05-17T07:45:16.877Z,3.57
2023-05-17T07:47:45.298Z,3.77
2023-05-17T07:50:13.733Z,3.20
2023-05-17T07:52:42.090Z,4.00
2023-05-17T07:55:11.133Z,3.00
2023-05-17T07:57:39.484Z,3.07
2023-05-17T08:00:09.867Z,3.53
2023-05-17T08:02:38.246Z,3.50
2023-05-17T08:05:06.918Z,3.57
2023-05-17T08:07:35.395Z,3.80
2023-05-17T08:10:06.289Z,3.83
2023-05-17T08:12:34.685Z,3.60
2023-05-17T08:15:03.202Z,3.77
2023-05-17T08:17:31.656Z,3.70
2023-05-17T08:20:00.124Z,3.50
2023-05-17T08:22:28.544Z,3.63
2023-05-17T08:24:56.887Z,3.73
2023-05-17T08:27:26.838Z,4.03
2023-05-17T08:29:56.280Z,3.73
2023-05-17T08:32:25.103Z,3.40
2023-05-17T08:34:54.063Z,3.57
2023-05-17T08:37:22.520Z,3.33
2023-05-17T08:39:52.243Z,3.90
2023-05-17T08:42:27.429Z,3.80
2023-05-17T08:44:56.251Z,3.83
2023-05-17T08:47:30.356Z,3.80
2023-05-17T08:50:02.849Z,3.70
2023-05-17T08:52:33.151Z,3.70
2023-05-17T08:55:04.773Z,4.03
2023-05-17T08:57:38.472Z,4.10
2023-05-17T09:00:13.158Z,4.10
2023-05-17T09:02:43.219Z,4.63
2023-05-17T09:05:12.020Z,3.57
2023-05-17T09:07:40.512Z,3.97
2023-05-17T09:10:09.689Z,3.90
2023-05-17T09:12:38.275Z,4.27
2023-05-17T09:15:20.929Z,3.60
2023-05-17T09:17:56.587Z,3.63
2023-05-17T09:20:40.272Z,3.60
2023-05-17T09:23:11.020Z,3.80
2023-05-17T09:25:39.356Z,4.10
2023-05-17T09:28:08.661Z,3.33
2023-05-17T09:30:41.144Z,3.83
2023-05-17T09:33:13.203Z,4.33
2023-05-17T09:35:44.676Z,3.87
2023-05-17T09:38:15.981Z,4.03
2023-05-17T09:40:46.586Z,3.40
2023-05-17T09:43:15.598Z,3.70
2023-05-17T09:45:44.328Z,3.80
2023-05-17T09:48:17.745Z,3.80
2023-05-17T09:50:52.546Z,4.07
2023-05-17T09:53:42.957Z,3.60
2023-05-17T09:56:11.981Z,4.00
2023-05-17T09:58:40.403Z,3.73
2023-05-17T10:01:11.646Z,3.73
2023-05-17T10:03:40.348Z,3.83
2023-05-17T10:06:13.400Z,4.33
2023-05-17T10:08:47.408Z,4.10
2023-05-17T10:11:15.780Z,3.90
2023-05-17T10:13:54.527Z,3.93
2023-05-17T10:16:24.246Z,4.10
2023-05-17T10:18:54.068Z,4.30
2023-05-17T10:21:24.030Z,4.50
2023-05-17T10:23:53.733Z,4.53
2023-05-17T10:26:22.899Z,4.20
2023-05-17T10:28:54.272Z,4.20
2023-05-17T10:31:23.759Z,4.57
2023-05-17T10:33:52.756Z,4.10
2023-05-17T10:36:21.753Z,4.10
2023-05-17T10:38:50.164Z,4.60
2023-05-17T10:41:20.632Z,3.97
2023-05-17T10:43:49.680Z,3.80
2023-05-17T10:46:22.109Z,4.30
2023-05-17T10:48:54.169Z,5.00
2023-05-17T10:51:33.037Z,3.80
2023-05-17T10:54:05.090Z,4.10
2023-05-17T10:56:34.408Z,4.20
2023-05-17T10:59:27.579Z,4.50
2023-05-17T11:02:00.550Z,4.33
2023-05-17T11:04:34.285Z,4.10
2023-05-17T11:07:22.661Z,4.70
2023-05-17T11:10:14.847Z,4.30
2023-05-17T11:12:46.681Z,4.30
2023-05-17T11:15:18.826Z,4.70
2023-05-17T11:17:54.966Z,4.47
2023-05-17T11:20:29.399Z,4.70
2023-05-17T11:23:03.729Z,4.77
2023-05-17T11:25:36.477Z,4.40
2023-05-17T11:28:10.343Z,4.30
2023-05-17T11:30:44.334Z,4.80
2023-05-17T11:33:25.306Z,4.93
2023-05-17T11:36:07.662Z,5.00
2023-05-17T11:38:36.049Z,4.50
2023-05-17T11:43:51.002Z,5.00
2023-05-17T11:46:24.728Z,4.40
2023-05-17T11:48:54.638Z,4.37
2023-05-17T11:51:25.351Z,4.60
2023-05-17T11:53:56.189Z,4.50
2023-05-17T11:56:39.566Z,4.43
2023-05-17T11:59:11.978Z,4.73
2023-05-17T12:01:48.352Z,4.57
2023-05-17T12:04:28.419Z,4.53
2023-05-17T12:06:58.685Z,5.13
2023-05-17T12:09:27.412Z,4.47
2023-05-17T12:11:57.174Z,4.27
2023-05-17T12:14:25.829Z,3.80
2023-05-17T12:16:57.165Z,4.60
2023-05-17T12:19:27.875Z,4.40
2023-05-17T12:22:07.987Z,4.23
2023-05-17T12:24:41.269Z,4.40
2023-05-17T12:27:09.963Z,4.97
2023-05-17T12:29:39.140Z,4.60
2023-05-17T12:32:09.508Z,5.13
2023-05-17T12:34:38.200Z,4.37
2023-05-17T12:37:11.191Z,4.13
2023-05-17T12:39:40.392Z,5.07
2023-05-17T12:42:10.007Z,5.20
2023-05-17T12:44:38.520Z,5.07
2023-05-17T12:47:07.052Z,4.60
2023-05-17T12:49:40.719Z,4.87
2023-05-17T12:52:11.193Z,4.20
2023-05-17T12:54:41.850Z,4.77
2023-05-17T12:57:16.606Z,5.03
2023-05-17T12:59:49.665Z,4.77
2023-05-17T13:02:18.456Z,5.80
2023-05-17T13:04:47.643Z,4.77
2023-05-17T13:07:24.669Z,5.30
2023-05-17T13:09:53.354Z,5.60
2023-05-17T13:12:26.061Z,5.57
2023-05-17T13:14:55.470Z,4.83
2023-05-17T13:17:37.650Z,5.93
2023-05-17T13:20:10.656Z,4.80
2023-05-17T13:22:46.760Z,5.60
2023-05-17T13:25:15.996Z,4.97
2023-05-17T13:27:47.680Z,5.43
2023-05-17T13:30:17.350Z,5.47
2023-05-17T13:32:47.982Z,4.60
2023-05-17T13:35:16.522Z,5.70
2023-05-17T13:37:44.881Z,5.47
2023-05-17T13:40:13.784Z,5.40
2023-05-17T13:42:42.236Z,5.43
2023-05-17T13:45:12.442Z,5.20
2023-05-17T13:47:40.938Z,6.40
2023-05-17T13:50:10.657Z,6.40
2023-05-17T13:52:39.249Z,6.40
2023-05-17T13:55:08.379Z,6.00
2023-05-17T13:57:36.781Z,7.13
2023-05-17T14:00:06.108Z,6.87
2023-05-17T14:02:34.513Z,6.37
2023-05-17T14:05:03.216Z,5.80
2023-05-17T14:07:31.554Z,6.83
2023-05-17T14:09:59.959Z,5.90
2023-05-17T14:12:28.441Z,6.00
2023-05-17T14:14:56.777Z,5.43
2023-05-17T14:17:25.169Z,6.00
2023-05-17T14:19:53.637Z,6.70
2023-05-17T14:22:22.391Z,6.10
2023-05-17T14:24:50.718Z,5.97
2023-05-17T14:27:19.167Z,5.20
2023-05-17T14:29:47.510Z,6.40
2023-05-17T14:32:16.358Z,7.23
2023-05-17T14:34:44.741Z,6.30
2023-05-17T14:37:14.726Z,6.47
2023-05-17T14:39:49.462Z,6.57
2023-05-17T14:42:31.641Z,6.70
2023-05-17T14:45:00.103Z,6.10
2023-05-17T14:47:28.613Z,6.67
2023-05-17T14:49:57.199Z,6.57
2023-05-17T14:52:26.146Z,6.47
2023-05-17T14:54:54.630Z,6.80
2023-05-17T14:57:23.032Z,6.70
2023-05-17T14:59:51.428Z,6.83
2023-05-17T15:02:19.897Z,6.83
2023-05-17T15:04:48.490Z,5.50
2023-05-17T15:07:17.439Z,5.83
2023-05-17T15:09:46.652Z,5.40
2023-05-17T15:12:15.124Z,6.77
2023-05-17T15:14:44.192Z,6.30
2023-05-17T15:17:12.590Z,7.23
2023-05-17T15:19:41.125Z,5.93
2023-05-17T15:22:10.278Z,6.47
2023-05-17T15:24:40.285Z,6.03
2023-05-17T15:27:08.997Z,5.80
2023-05-17T15:29:39.623Z,7.30
2023-05-17T15:32:08.460Z,6.37
2023-05-17T15:34:37.385Z,5.27
2023-05-17T15:37:05.790Z,5.30
2023-05-17T15:39:34.138Z,5.73
2023-05-17T15:42:02.989Z,5.97
2023-05-17T15:44:31.334Z,5.77
2023-05-17T15:47:02.245Z,5.80
2023-05-17T15:49:31.563Z,5.17
2023-05-17T15:52:00.187Z,4.83
2023-05-17T15:54:28.523Z,5.37
2023-05-17T15:56:56.861Z,4.77
2023-05-17T15:59:25.210Z,5.30
2023-05-17T16:01:53.600Z,6.53
2023-05-17T16:04:22.133Z,5.80
2023-05-17T16:09:10.462Z,5.27
2023-05-17T16:11:38.923Z,5.93
2023-05-17T16:14:07.582Z,5.53
2023-05-17T16:16:35.962Z,6.50
2023-05-17T16:19:05.477Z,6.77
2023-05-17T16:21:33.956Z,6.90
2023-05-17T16:24:04.897Z,8.40
2023-05-17T16:26:36.908Z,8.07
2023-05-17T16:29:05.400Z,7.80
2023-05-17T16:31:33.744Z,8.13
2023-05-17T16:34:02.330Z,8.00
2023-05-17T16:36:30.990Z,8.53
2023-05-17T16:38:59.328Z,7.83
2023-05-17T16:41:27.829Z,8.20
2023-05-17T16:43:56.257Z,8.30
2023-05-17T16:46:25.615Z,7.90
2023-05-17T16:48:54.687Z,8.23
2023-05-17T16:51:23.248Z,8.20
2023-05-17T16:53:51.618Z,8.10
2023-05-17T16:56:19.973Z,8.37
2023-05-17T16:58:48.325Z,8.50
2023-05-17T17:01:17.339Z,7.57
2023-05-17T17:03:45.719Z,8.77
2023-05-17T17:06:14.423Z,8.30
2023-05-17T17:08:43.479Z,8.10
2023-05-17T17:11:11.891Z,7.53
2023-05-17T17:13:40.346Z,8.50
2023-05-17T17:16:08.801Z,7.40
2023-05-17T17:18:37.258Z,8.23
2023-05-17T17:21:07.878Z,7.50
2023-05-17T17:23:36.510Z,7.73
2023-05-17T17:26:04.943Z,9.03
2023-05-17T17:28:33.374Z,8.30
2023-05-17T17:31:02.047Z,8.60
2023-05-17T17:33:30.525Z,7.83
2023-05-17T17:35:58.913Z,6.93
2023-05-17T17:38:27.544Z,7.50
2023-05-17T17:40:56.018Z,7.97
2023-05-17T17:43:24.466Z,8.10
2023-05-17T17:45:52.833Z,6.20
2023-05-17T17:48:21.252Z,6.53
2023-05-17T17:50:49.582Z,7.80
2023-05-17T17:53:18.161Z,7.10
2023-05-17T17:55:46.507Z,7.80
2023-05-17T17:58:14.970Z,8.40
2023-05-17T18:00:43.380Z,8.40
2023-05-17T18:03:13.450Z,7.43
2023-05-17T18:05:42.098Z,7.60
2023-05-17T18:08:10.527Z,8.47
2023-05-17T18:10:38.909Z,7.70
2023-05-17T18:13:07.467Z,7.83
2023-05-17T18:15:35.846Z,8.00
2023-05-17T18:18:04.303Z,7.40
2023-05-17T18:20:32.710Z,8.00
2023-05-17T18:23:01.128Z,7.50
2023-05-17T18:25:29.489Z,7.10
2023-05-17T18:27:59.180Z,7.50
2023-05-17T18:30:27.770Z,6.80
2023-05-17T18:32:56.380Z,7.20
2023-05-17T18:35:24.800Z,7.17
2023-05-17T18:37:53.197Z,6.97
2023-05-17T18:40:21.711Z,6.37
2023-05-17T18:42:50.156Z,7.37
2023-05-17T18:45:18.667Z,6.23
2023-05-17T18:47:47.285Z,6.70
2023-05-17T18:50:15.674Z,6.30
2023-05-17T18:52:44.073Z,6.57
2023-05-17T18:55:12.457Z,7.10
2023-05-17T18:57:43.138Z,6.93
2023-05-17T19:00:11.981Z,6.30
2023-05-17T19:02:41.344Z,6.30
2023-05-17T19:05:10.129Z,5.00
2023-05-17T19:07:38.543Z,5.53
2023-05-17T19:10:07.572Z,5.43
2023-05-17T19:12:36.314Z,6.40
2023-05-17T19:15:05.138Z,5.60
2023-05-17T19:17:33.573Z,6.70
2023-05-17T19:20:02.324Z,6.37
2023-05-17T19:22:30.685Z,6.00
2023-05-17T19:24:59.108Z,5.90
2023-05-17T19:27:28.258Z,6.57
2023-05-17T19:29:56.917Z,5.77
2023-05-17T19:32:25.294Z,5.50
2023-05-17T19:34:53.747Z,5.10
2023-05-17T19:37:22.229Z,5.53
2023-05-17T19:39:50.640Z,4.97
2023-05-17T19:42:19.097Z,4.90
2023-05-17T19:44:47.451Z,5.60
2023-05-17T19:47:15.894Z,5.33
2023-05-17T19:49:44.586Z,5.37
2023-05-17T19:52:13.097Z,5.70
2023-05-17T19:54:41.498Z,4.90
2023-05-17T19:57:09.906Z,5.00
2023-05-17T19:59:38.344Z,4.70
2023-05-17T20:02:07.608Z,5.10
2023-05-17T20:04:36.017Z,5.03
2023-05-17T20:07:04.463Z,4.60
2023-05-17T20:09:32.992Z,5.03
2023-05-17T20:12:01.537Z,4.33
2023-05-17T20:14:29.897Z,4.60
2023-05-17T20:16:58.278Z,4.57
2023-05-17T20:19:27.238Z,5.47
2023-05-17T20:21:56.006Z,4.23
2023-05-17T20:24:26.242Z,4.50
2023-05-17T20:26:54.558Z,4.70
2023-05-17T20:29:22.933Z,4.13
2023-05-17T20:31:51.477Z,4.13
2023-05-17T20:34:20.163Z,4.90
2023-05-17T20:36:48.573Z,4.33
2023-05-17T20:39:17.009Z,4.30
2023-05-17T20:41:45.359Z,4.67
2023-05-17T20:44:20.289Z,4.60
2023-05-17T20:46:49.874Z,4.20
2023-05-17T20:49:18.896Z,4.27
2023-05-17T20:51:47.289Z,3.80
2023-05-17T20:54:15.722Z,3.30
2023-05-17T20:56:44.138Z,3.53
2023-05-17T20:59:12.574Z,4.10
2023-05-17T21:01:42.150Z,4.07
2023-05-17T21:04:11.912Z,2.70
2023-05-17T21:06:40.308Z,3.43
2023-05-17T21:09:09.228Z,3.80
2023-05-17T21:11:37.705Z,3.30
2023-05-17T21:14:06.113Z,3.30
2023-05-17T21:16:36.192Z,3.50
2023-05-17T21:19:05.152Z,2.73
2023-05-17T21:21:33.523Z,2.03
2023-05-17T21:24:01.911Z,2.60
2023-05-17T21:26:30.448Z,2.67
2023-05-17T21:28:58.806Z,2.40
2023-05-17T21:31:29.002Z,2.50
2023-05-17T21:33:57.374Z,2.60
2023-05-17T21:36:25.882Z,2.30
2023-05-17T21:38:54.258Z,2.63
2023-05-17T21:41:23.176Z,2.57
2023-05-17T21:43:51.604Z,2.30
2023-05-17T21:46:20.097Z,2.80
2023-05-17T21:48:48.533Z,2.47
2023-05-17T21:51:17.463Z,2.37
2023-05-17T21:53:46.010Z,2.53
2023-05-17T21:56:14.482Z,2.77
2023-05-17T21:58:42.950Z,2.63
2023-05-17T22:01:11.381Z,2.50
2023-05-17T22:03:39.843Z,2.90
2023-05-17T22:06:08.553Z,3.23
2023-05-17T22:08:36.937Z,2.67
2023-05-17T22:11:06.481Z,3.37
2023-05-17T22:13:34.797Z,2.60
2023-05-17T22:16:03.454Z,2.90
2023-05-17T22:18:32.659Z,2.67
2023-05-17T22:21:01.191Z,3.20
2023-05-17T22:23:29.692Z,2.80
2023-05-17T22:26:00.948Z,2.60
2023-05-17T22:28:29.556Z,3.13
2023-05-17T22:30:58.013Z,3.10
2023-05-17T22:33:26.525Z,2.90
2023-05-17T22:35:54.964Z,3.40
2023-05-17T22:38:26.639Z,3.03
2023-05-17T22:40:55.456Z,3.37
2023-05-17T22:43:23.840Z,3.20
2023-05-17T22:45:53.009Z,3.30
2023-05-17T22:48:21.408Z,2.90
2023-05-17T22:50:51.385Z,3.50
2023-05-17T22:53:19.968Z,3.17
2023-05-17T22:55:49.728Z,3.00
2023-05-17T22:58:18.272Z,3.00
2023-05-17T23:00:46.874Z,2.90
2023-05-17T23:03:15.591Z,3.70
2023-05-17T23:05:44.311Z,3.33
2023-05-17T23:08:14.286Z,2.93
2023-05-17T23:10:46.180Z,3.30
2023-05-17T23:13:14.752Z,2.93
2023-05-17T23:15:47.517Z,3.10
2023-05-17T23:18:16.828Z,2.93
2023-05-17T23:20:46.999Z,3.10
2023-05-17T23:23:16.432Z,2.80
2023-05-17T23:25:49.135Z,2.90
2023-05-17T23:28:19.065Z,2.90
2023-05-17T23:30:49.387Z,3.03
2023-05-17T23:33:19.668Z,3.40
2023-05-17T23:35:48.065Z,2.73
2023-05-17T23:38:16.521Z,2.57
2023-05-17T23:40:45.096Z,2.90
2023-05-17T23:43:13.559Z,2.47
2023-05-17T23:45:42.181Z,2.93
2023-05-17T23:48:10.618Z,2.40
2023-05-17T23:50:39.082Z,2.70
2023-05-17T23:53:10.286Z,3.03
2023-05-17T23:55:39.296Z,2.90
2023-05-17T23:58:07.757Z,3.37
